Jansen, Nebraska
Current Conditions -  °F | °C
As of 8:15 AM on Saturday 25 Oct 2014 (Local Time) from KBIE Reporting Station
Haze Haze  
Wind Chill: 43°   Ceiling: Unl
Heat Index: 43°   Visibility: 5mi
Dew Point: 43°   Wind: 3mph
Humidity: 99%   Direction: 10°N
Pressure: 30.08"   Gusts: NA
Location:  40.19°N, 97.08°W
Report Text: KBIE 251315Z AUTO 01003KT 5SM BR CLR 06/06 A3008 RMK AO2 T00620061
Loading
Personal Weather Stations






























Interactive Weather Map
Tropical Storm Tracking
New forecast layout! Learn more

10-Day Weather Forecast

Advertisements
Track Severe Weather on mobile